aviador You're here:

CYLW Decoded Metar

KELOWNA in BC, CANADA
Report Time2018-04-26 01:00:00
UTC Time2018-04-26 01:54:00
Flight Rules vfr VFR
Wind330° at 09 Gusting to 17 kt
W.Decomp.*RWY 34: 7.9 kt HW 4.2 kt LCW
W.Rank330° ranks 16
Current wind is above 330° avg. (6.7)
Visibility9999 m
Phenomena:N/A
Clouds:N/A
Expected CloudBase > 8,400 ft AGL from Temp-Dew spread
CeilingNone
Temp20°C (ISA +8)
Dew Point-1°C (24% RH)
AAT14.6°C
QNH1021 hPa
Density Alt2,136 ft
Elevation1,411 ft
Report Wrong Elevation
Raw Report
CYLW 260100Z AUTO 33009G17KT 9SM CLR 20/M01 A3015 RMK SLP218
DENSITY ALT 2000FT=

Extra information for CYLW:More info

Metar Taf Metar & Taf Last 4 Metars F.Rules Stats Wind Profile Meteogram Temp Stats Airport Information Weather charts Add Link Nearby VenuesMetar ALERT Operation Metar Decoded Social comments